Time;durP1;ratioP1;P1;durP2;ratioP2;P2;SDS_P1;SDS_P2;PMS_P1;PMS_P2;Temp;Humidity;BMP_temperature;BMP_pressure;BME280_temperature;BME280_humidity;BME280_pressure;Samples;Min_cycle;Max_cycle;Signal;HPM_P1;HPM_P2
2024/03/10 02:47:25;;;;;;;1999.90;999.90;;;;;;;;;;5036365;28;20725;-67
2024/03/10 02:50:12;;;;;;;1999.90;999.90;;;;;;;;;;5035596;28;20226;-67
2024/03/10 02:52:58;;;;;;;1999.90;999.90;;;;;;;;;;5034758;28;20713;-66
2024/03/10 02:55:44;;;;;;;1999.90;999.90;;;;;;;;;;5035198;28;20337;-67
2024/03/10 02:58:29;;;;;;;1999.90;999.90;;;;;;;;;;5031186;28;20266;-67
2024/03/10 03:01:16;;;;;;;1999.90;999.90;;;;;;;;;;5025972;28;20219;-66
2024/03/10 03:04:04;;;;;;;1999.90;999.90;;;;;;;;;;5027117;28;20226;-68
2024/03/10 03:06:50;;;;;;;1999.90;999.90;;;;;;;;;;5015093;28;20230;-69
2024/03/10 03:09:36;;;;;;;1999.90;999.90;;;;;;;;;;5015228;28;20207;-68
2024/03/10 03:12:21;;;;;;;1999.90;999.90;;;;;;;;;;5014931;28;20207;-68
2024/03/10 03:15:06;;;;;;;1999.90;999.90;;;;;;;;;;5015118;28;20206;-68
2024/03/10 03:17:51;;;;;;;1999.90;999.90;;;;;;;;;;5014985;28;20256;-68
2024/03/10 03:20:36;;;;;;;1999.90;999.90;;;;;;;;;;5014877;28;20285;-67
2024/03/10 03:23:22;;;;;;;1999.90;999.90;;;;;;;;;;5014495;28;20234;-67
2024/03/10 03:26:08;;;;;;;1999.90;999.90;;;;;;;;;;5015135;28;20210;-66
2024/03/10 03:28:53;;;;;;;1999.90;999.90;;;;;;;;;;5015386;28;20563;-67
2024/03/10 03:31:38;;;;;;;1999.90;999.90;;;;;;;;;;5014659;28;20249;-68
2024/03/10 03:34:23;;;;;;;1999.90;999.90;;;;;;;;;;5013116;28;20415;-67
2024/03/10 03:37:10;;;;;;;1999.90;999.90;;;;;;;;;;5014820;28;20289;-66
2024/03/10 03:39:57;;;;;;;1999.90;999.90;;;;;;;;;;5014870;28;20214;-65
2024/03/10 03:42:42;;;;;;;1999.90;999.90;;;;;;;;;;5014238;28;20697;-66
2024/03/10 03:45:27;;;;;;;1999.90;999.90;;;;;;;;;;5014199;28;20589;-67
2024/03/10 03:48:12;;;;;;;1999.90;999.90;;;;;;;;;;5013967;28;20529;-67
2024/03/10 03:50:57;;;;;;;1999.90;999.90;;;;;;;;;;5013849;28;20218;-67
2024/03/10 03:53:44;;;;;;;1999.90;999.90;;;;;;;;;;5013506;28;20360;-67
2024/03/10 03:56:31;;;;;;;1999.90;999.90;;;;;;;;;;5013766;28;20198;-68
2024/03/10 03:59:17;;;;;;;1999.90;999.90;;;;;;;;;;5013879;28;20308;-67
2024/03/10 04:02:03;;;;;;;1999.90;999.90;;;;;;;;;;5014289;28;20245;-67
2024/03/10 04:04:48;;;;;;;1999.90;999.90;;;;;;;;;;5014222;28;20271;-67
2024/03/10 04:07:34;;;;;;;1999.90;999.90;;;;;;;;;;5014146;28;20202;-68
2024/03/10 04:10:19;;;;;;;1999.90;999.90;;;;;;;;;;5013970;28;20230;-67
2024/03/10 04:13:06;;;;;;;1999.90;999.90;;;;;;;;;;5013857;28;20301;-67
2024/03/10 04:15:51;;;;;;;1999.90;999.90;;;;;;;;;;5013822;28;20706;-67
2024/03/10 04:18:35;;;;;;;1999.90;999.90;;;;;;;;;;5013874;28;20203;-67
2024/03/10 04:21:20;;;;;;;1999.90;999.90;;;;;;;;;;5013806;28;20213;-68
2024/03/10 04:24:07;;;;;;;1999.90;999.90;;;;;;;;;;5012796;28;20467;-67
2024/03/10 04:26:55;;;;;;;1999.90;999.90;;;;;;;;;;5013842;28;20281;-68
2024/03/10 04:29:42;;;;;;;1999.90;999.90;;;;;;;;;;5013434;28;20206;-67
2024/03/10 04:32:29;;;;;;;1999.90;999.90;;;;;;;;;;5012316;28;20772;-69
2024/03/10 04:35:15;;;;;;;1999.90;999.90;;;;;;;;;;5013330;28;20237;-67
2024/03/10 04:38:00;;;;;;;1999.90;999.90;;;;;;;;;;5013539;28;20281;-68
2024/03/10 04:40:45;;;;;;;1999.90;999.90;;;;;;;;;;5012408;28;20477;-68
2024/03/10 04:43:29;;;;;;;1999.90;999.90;;;;;;;;;;5014636;28;20356;-68
2024/03/10 04:46:17;;;;;;;1999.90;999.90;;;;;;;;;;5015034;28;20576;-68
2024/03/10 04:49:03;;;;;;;1999.90;999.90;;;;;;;;;;5015129;28;20259;-67
2024/03/10 04:51:49;;;;;;;1999.90;999.90;;;;;;;;;;5014030;28;20222;-66
2024/03/10 04:54:34;;;;;;;1999.90;999.90;;;;;;;;;;5013755;28;20313;-67
2024/03/10 04:57:19;;;;;;;1999.90;999.90;;;;;;;;;;5013581;28;20202;-68
2024/03/10 05:00:09;;;;;;;1999.90;999.90;;;;;;;;;;5014167;28;20233;-67
2024/03/10 05:02:57;;;;;;;1999.90;999.90;;;;;;;;;;5013067;28;20238;-68
2024/03/10 05:05:43;;;;;;;1999.90;999.90;;;;;;;;;;5013157;28;20247;-68
2024/03/10 05:08:28;;;;;;;1999.90;999.90;;;;;;;;;;5013514;28;20217;-68
2024/03/10 05:11:15;;;;;;;1999.90;999.90;;;;;;;;;;5012555;28;20220;-68
2024/03/10 05:14:00;;;;;;;1999.90;999.90;;;;;;;;;;5016257;28;20435;-67
2024/03/10 05:16:45;;;;;;;1999.90;999.90;;;;;;;;;;5030248;28;20212;-67
2024/03/10 05:19:32;;;;;;;1999.90;999.90;;;;;;;;;;5027494;28;20216;-68
2024/03/10 05:22:17;;;;;;;1999.90;999.90;;;;;;;;;;5013228;28;20201;-68
2024/03/10 05:25:02;;;;;;;1999.90;999.90;;;;;;;;;;5013580;28;20221;-68
2024/03/10 05:27:49;;;;;;;1999.90;999.90;;;;;;;;;;5013669;28;20276;-65
2024/03/10 05:30:34;;;;;;;1999.90;999.90;;;;;;;;;;5011887;28;20408;-67
2024/03/10 05:33:19;;;;;;;1999.90;999.90;;;;;;;;;;5013235;28;20253;-67
2024/03/10 05:36:06;;;;;;;1999.90;999.90;;;;;;;;;;5013467;28;20210;-67
2024/03/10 05:38:52;;;;;;;1999.90;999.90;;;;;;;;;;5013141;28;20213;-68
2024/03/10 05:41:37;;;;;;;1999.90;999.90;;;;;;;;;;5013219;28;20209;-66
2024/03/10 05:44:22;;;;;;;1999.90;999.90;;;;;;;;;;5012638;28;20769;-67
2024/03/10 05:47:07;;;;;;;1999.90;999.90;;;;;;;;;;5012644;28;20213;-67
2024/03/10 05:49:52;;;;;;;1999.90;999.90;;;;;;;;;;5013137;28;20588;-67
2024/03/10 05:52:38;;;;;;;1999.90;999.90;;;;;;;;;;5012852;28;20225;-67
2024/03/10 05:55:23;;;;;;;1999.90;999.90;;;;;;;;;;5013157;28;20265;-66
2024/03/10 05:58:08;;;;;;;1999.90;999.90;;;;;;;;;;5012562;28;20214;-66
2024/03/10 06:00:53;;;;;;;1999.90;999.90;;;;;;;;;;5013599;28;20593;-67
2024/03/10 06:03:37;;;;;;;1999.90;999.90;;;;;;;;;;5016474;28;20730;-67
2024/03/10 06:06:22;;;;;;;1999.90;999.90;;;;;;;;;;5026587;28;20217;-67
2024/03/10 06:09:10;;;;;;;1999.90;999.90;;;;;;;;;;5029678;28;20290;-67
2024/03/10 06:11:55;;;;;;;1999.90;999.90;;;;;;;;;;5012698;28;20297;-68
2024/03/10 06:14:40;;;;;;;1999.90;999.90;;;;;;;;;;5012686;28;20232;-67
2024/03/10 06:17:31;;;;;;;1999.90;999.90;;;;;;;;;;5013115;28;20212;-67
2024/03/10 06:26:34;;;;;;;1999.90;999.90;;;;;;;;;;4971506;28;20262;-68
2024/03/10 06:29:19;;;;;;;1999.90;999.90;;;;;;;;;;5032147;28;20205;-68
2024/03/10 06:32:05;;;;;;;1999.90;999.90;;;;;;;;;;5031785;28;20308;-67
2024/03/10 06:34:50;;;;;;;1999.90;999.90;;;;;;;;;;5032255;28;20600;-67
2024/03/10 06:37:35;;;;;;;1999.90;999.90;;;;;;;;;;5032930;28;20208;-68
2024/03/10 06:40:21;;;;;;;1999.90;999.90;;;;;;;;;;5032184;28;20208;-67
2024/03/10 06:43:08;;;;;;;1999.90;999.90;;;;;;;;;;5032034;28;20248;-67
2024/03/10 06:45:53;;;;;;;1999.90;999.90;;;;;;;;;;5032614;28;20212;-66
2024/03/10 06:48:38;;;;;;;1999.90;999.90;;;;;;;;;;5032571;28;20218;-67
2024/03/10 06:51:24;;;;;;;1999.90;999.90;;;;;;;;;;5032330;28;20363;-67
2024/03/10 06:54:10;;;;;;;1999.90;999.90;;;;;;;;;;5032441;28;20276;-66
2024/03/10 06:56:55;;;;;;;1999.90;999.90;;;;;;;;;;5034167;28;20204;-65
2024/03/10 06:59:43;;;;;;;1999.90;999.90;;;;;;;;;;5017086;28;20411;-67
2024/03/10 07:02:28;;;;;;;1999.90;999.90;;;;;;;;;;5016056;28;20198;-67
2024/03/10 07:05:15;;;;;;;1999.90;999.90;;;;;;;;;;5016073;28;20739;-68
2024/03/10 07:08:00;;;;;;;1999.90;999.90;;;;;;;;;;5016156;28;20683;-67
2024/03/10 07:10:45;;;;;;;1999.90;999.90;;;;;;;;;;5016064;28;20689;-68
2024/03/10 07:13:30;;;;;;;1999.90;999.90;;;;;;;;;;5016671;28;20218;-68
2024/03/10 07:16:16;;;;;;;1999.90;999.90;;;;;;;;;;5015601;28;20416;-67
2024/03/10 07:19:01;;;;;;;1999.90;999.90;;;;;;;;;;5019898;28;20210;-65
2024/03/10 07:21:46;;;;;;;1999.90;999.90;;;;;;;;;;5029425;28;20309;-68
2024/03/10 07:24:31;;;;;;;1999.90;999.90;;;;;;;;;;5033146;28;20229;-68
2024/03/10 07:27:16;;;;;;;1999.90;999.90;;;;;;;;;;5018011;28;20211;-66
2024/03/10 07:30:04;;;;;;;1999.90;999.90;;;;;;;;;;5015612;28;20707;-68
2024/03/10 07:32:51;;;;;;;1999.90;999.90;;;;;;;;;;5016670;28;20222;-67
2024/03/10 07:35:36;;;;;;;1999.90;999.90;;;;;;;;;;5019823;28;20206;-68
2024/03/10 07:38:21;;;;;;;1999.90;999.90;;;;;;;;;;5023468;28;20214;-65
2024/03/10 07:41:06;;;;;;;1999.90;999.90;;;;;;;;;;5031095;28;20698;-66
2024/03/10 07:43:51;;;;;;;1999.90;999.90;;;;;;;;;;5035518;28;20237;-67
2024/03/10 07:46:38;;;;;;;1999.90;999.90;;;;;;;;;;5035183;28;20345;-68
2024/03/10 07:49:24;;;;;;;1999.90;999.90;;;;;;;;;;5026427;28;20215;-69
2024/03/10 07:52:10;;;;;;;1999.90;999.90;;;;;;;;;;5015012;28;20675;-68
2024/03/10 07:54:56;;;;;;;1999.90;999.90;;;;;;;;;;5033992;28;20232;-67
2024/03/10 07:57:41;;;;;;;1999.90;999.90;;;;;;;;;;5035204;28;20709;-67
2024/03/10 08:00:26;;;;;;;1999.90;999.90;;;;;;;;;;5035295;28;20268;-68
2024/03/10 08:03:12;;;;;;;1999.90;999.90;;;;;;;;;;5034753;28;20753;-66
2024/03/10 08:05:58;;;;;;;1999.90;999.90;;;;;;;;;;5027006;28;20702;-67
2024/03/10 08:08:43;;;;;;;1999.90;999.90;;;;;;;;;;5015725;28;20429;-69
2024/03/10 08:11:29;;;;;;;1999.90;999.90;;;;;;;;;;5030309;28;20226;-69
2024/03/10 08:14:14;;;;;;;1999.90;999.90;;;;;;;;;;5032984;28;20340;-69
2024/03/10 08:16:59;;;;;;;1999.90;999.90;;;;;;;;;;5027690;28;20222;-70
2024/03/10 08:19:44;;;;;;;1999.90;999.90;;;;;;;;;;5014174;28;20734;-70
2024/03/10 08:22:31;;;;;;;1999.90;999.90;;;;;;;;;;5013664;28;20568;-69
2024/03/10 08:25:17;;;;;;;1999.90;999.90;;;;;;;;;;5013602;28;20699;-70
2024/03/10 08:28:04;;;;;;;1999.90;999.90;;;;;;;;;;5016501;28;20228;-70
2024/03/10 08:30:50;;;;;;;1999.90;999.90;;;;;;;;;;5033388;28;20272;-69
2024/03/10 08:33:35;;;;;;;1999.90;999.90;;;;;;;;;;5022564;28;20357;-70
2024/03/10 08:36:20;;;;;;;1999.90;999.90;;;;;;;;;;5021602;28;20201;-70
2024/03/10 08:39:08;;;;;;;1999.90;999.90;;;;;;;;;;5033245;28;20205;-70
2024/03/10 08:41:53;;;;;;;1999.90;999.90;;;;;;;;;;5032201;28;20425;-69
2024/03/10 08:44:38;;;;;;;1999.90;999.90;;;;;;;;;;5018681;28;20258;-70
2024/03/10 08:47:23;;;;;;;1999.90;999.90;;;;;;;;;;5013398;28;20206;-69
2024/03/10 08:50:09;;;;;;;1999.90;999.90;;;;;;;;;;5015072;28;20381;-67
2024/03/10 08:52:54;;;;;;;1999.90;999.90;;;;;;;;;;5019963;28;20230;-70
2024/03/10 08:55:41;;;;;;;1999.90;999.90;;;;;;;;;;5014685;28;20325;-70
2024/03/10 08:58:26;;;;;;;1999.90;999.90;;;;;;;;;;5033053;28;20210;-70
2024/03/10 09:01:11;;;;;;;1999.90;999.90;;;;;;;;;;5031951;28;20893;-70
2024/03/10 09:03:57;;;;;;;1999.90;999.90;;;;;;;;;;5032517;28;20225;-70
2024/03/10 09:06:43;;;;;;;1999.90;999.90;;;;;;;;;;5032476;28;20218;-70
2024/03/10 09:09:28;;;;;;;1999.90;999.90;;;;;;;;;;5032664;28;20270;-70
2024/03/10 09:12:14;;;;;;;1999.90;999.90;;;;;;;;;;5032360;28;20217;-71
2024/03/10 09:14:59;;;;;;;1999.90;999.90;;;;;;;;;;5032363;28;20352;-71
2024/03/10 09:17:44;;;;;;;1999.90;999.90;;;;;;;;;;5020698;28;20406;-70
2024/03/10 09:20:30;;;;;;;1999.90;999.90;;;;;;;;;;5024729;28;20211;-70
2024/03/10 09:23:15;;;;;;;1999.90;999.90;;;;;;;;;;5017198;28;20840;-70
2024/03/10 09:26:01;;;;;;;1999.90;999.90;;;;;;;;;;5012697;28;20236;-70
2024/03/10 09:28:48;;;;;;;1999.90;999.90;;;;;;;;;;5028603;28;20213;-70
2024/03/10 09:31:34;;;;;;;1999.90;999.90;;;;;;;;;;5021978;28;20421;-70
2024/03/10 09:34:20;;;;;;;1999.90;999.90;;;;;;;;;;5012268;28;20234;-70
2024/03/10 09:37:06;;;;;;;1999.90;999.90;;;;;;;;;;5021790;28;20577;-69
2024/03/10 09:39:51;;;;;;;1999.90;999.90;;;;;;;;;;5030773;28;20297;-69
2024/03/10 09:42:36;;;;;;;1999.90;999.90;;;;;;;;;;5031070;28;20203;-70
2024/03/10 09:45:25;;;;;;;1999.90;999.90;;;;;;;;;;5012719;28;20253;-70
2024/03/10 09:48:11;;;;;;;1999.90;999.90;;;;;;;;;;5015367;28;20218;-69
2024/03/10 09:50:56;;;;;;;1999.90;999.90;;;;;;;;;;5011224;28;20401;-69
2024/03/10 09:53:41;;;;;;;1999.90;999.90;;;;;;;;;;5018587;28;20230;-70
2024/03/10 09:56:27;;;;;;;1999.90;999.90;;;;;;;;;;5018467;28;20633;-70
2024/03/10 09:59:17;;;;;;;1999.90;999.90;;;;;;;;;;5025806;28;20214;-70
2024/03/10 10:02:04;;;;;;;1999.90;999.90;;;;;;;;;;5031502;28;20202;-70
2024/03/10 10:04:53;;;;;;;1999.90;999.90;;;;;;;;;;5022410;28;20233;-70
2024/03/10 10:07:38;;;;;;;1999.90;999.90;;;;;;;;;;5030624;28;20206;-69
2024/03/10 10:10:23;;;;;;;1999.90;999.90;;;;;;;;;;5013094;28;20221;-70
2024/03/10 10:13:09;;;;;;;1999.90;999.90;;;;;;;;;;5016506;28;20280;-69
2024/03/10 10:15:54;;;;;;;1999.90;999.90;;;;;;;;;;5031861;28;20583;-70
2024/03/10 10:18:41;;;;;;;1999.90;999.90;;;;;;;;;;5021179;28;20213;-69
2024/03/10 10:21:28;;;;;;;1999.90;999.90;;;;;;;;;;5029372;28;20206;-70
2024/03/10 10:24:13;;;;;;;1999.90;999.90;;;;;;;;;;5022904;28;20882;-70
2024/03/10 10:26:59;;;;;;;1999.90;999.90;;;;;;;;;;5030021;28;20209;-70
2024/03/10 10:29:48;;;;;;;1999.90;999.90;;;;;;;;;;5012153;28;20206;-71
2024/03/10 10:32:33;;;;;;;1999.90;999.90;;;;;;;;;;5014252;28;20360;-71
2024/03/10 10:35:19;;;;;;;1999.90;999.90;;;;;;;;;;5015979;28;20211;-70
2024/03/10 10:38:11;;;;;;;1999.90;999.90;;;;;;;;;;5016129;28;20249;-70
2024/03/10 10:40:56;;;;;;;1999.90;999.90;;;;;;;;;;5028464;28;20414;-73
2024/03/10 10:43:45;;;;;;;1999.90;999.90;;;;;;;;;;5023083;28;20222;-70
2024/03/10 10:46:30;;;;;;;1999.90;999.90;;;;;;;;;;5015662;28;20592;-70
2024/03/10 10:49:16;;;;;;;1999.90;999.90;;;;;;;;;;5029785;28;20214;-70
2024/03/10 10:52:04;;;;;;;1999.90;999.90;;;;;;;;;;5034706;28;20202;-69
2024/03/10 10:54:49;;;;;;;1999.90;999.90;;;;;;;;;;5015663;28;20226;-70
2024/03/10 10:57:40;;;;;;;1999.90;999.90;;;;;;;;;;5015816;28;20209;-70
2024/03/10 11:00:28;;;;;;;1999.90;999.90;;;;;;;;;;5035276;28;20205;-70
2024/03/10 11:03:15;;;;;;;1999.90;999.90;;;;;;;;;;5028272;28;20229;-70
2024/03/10 11:06:15;;;;;;;1999.90;999.90;;;;;;;;;;5015250;28;20213;-70
2024/03/10 11:09:05;;;;;;;1999.90;999.90;;;;;;;;;;5019299;28;20273;-70
2024/03/10 11:11:51;;;;;;;1999.90;999.90;;;;;;;;;;5014983;28;20260;-70
2024/03/10 11:14:38;;;;;;;1999.90;999.90;;;;;;;;;;5013465;28;20419;-70
2024/03/10 11:17:29;;;;;;;1999.90;999.90;;;;;;;;;;5014920;28;20217;-70
2024/03/10 11:20:15;;;;;;;1999.90;999.90;;;;;;;;;;5014930;28;20206;-70
2024/03/10 11:23:00;;;;;;;1999.90;999.90;;;;;;;;;;5014829;28;20205;-70
2024/03/10 11:25:51;;;;;;;1999.90;999.90;;;;;;;;;;5015002;28;20233;-70
2024/03/10 11:28:49;;;;;;;1999.90;999.90;;;;;;;;;;5014448;28;20214;-70
2024/03/10 11:31:38;;;;;;;1999.90;999.90;;;;;;;;;;5013175;28;20416;-70
2024/03/10 11:34:23;;;;;;;1999.90;999.90;;;;;;;;;;5029865;28;20234;-70
2024/03/10 11:37:14;;;;;;;1999.90;999.90;;;;;;;;;;5021085;28;20225;-70
2024/03/10 11:40:03;;;;;;;1999.90;999.90;;;;;;;;;;5014578;28;20701;-70
2024/03/10 11:42:49;;;;;;;1999.90;999.90;;;;;;;;;;5015871;28;20217;-69
2024/03/10 11:45:34;;;;;;;1999.90;999.90;;;;;;;;;;5034866;28;20271;-70
2024/03/10 11:48:19;;;;;;;1999.90;999.90;;;;;;;;;;5026722;28;20224;-70
2024/03/10 11:51:07;;;;;;;1999.90;999.90;;;;;;;;;;5014434;28;20195;-70
2024/03/10 11:53:52;;;;;;;1999.90;999.90;;;;;;;;;;5023629;28;20276;-70
2024/03/10 11:56:39;;;;;;;1999.90;999.90;;;;;;;;;;5033522;28;20606;-69
2024/03/10 11:59:25;;;;;;;1999.90;999.90;;;;;;;;;;5017428;28;20705;-69
2024/03/10 12:02:10;;;;;;;1999.90;999.90;;;;;;;;;;5012904;28;20928;-70
2024/03/10 12:04:55;;;;;;;1999.90;999.90;;;;;;;;;;5017748;28;20229;-69
2024/03/10 12:07:42;;;;;;;1999.90;999.90;;;;;;;;;;5022337;28;20268;-69
2024/03/10 12:10:32;;;;;;;1999.90;999.90;;;;;;;;;;5013935;28;20256;-69
2024/03/10 12:13:18;;;;;;;1999.90;999.90;;;;;;;;;;5026381;28;20593;-69
2024/03/10 12:16:06;;;;;;;1999.90;999.90;;;;;;;;;;5018600;28;20216;-69
2024/03/10 12:18:51;;;;;;;1999.90;999.90;;;;;;;;;;5034351;28;20719;-69
2024/03/10 12:21:37;;;;;;;1999.90;999.90;;;;;;;;;;5033528;28;20210;-70
2024/03/10 12:24:22;;;;;;;1999.90;999.90;;;;;;;;;;5033048;28;20721;-69
2024/03/10 12:27:09;;;;;;;1999.90;999.90;;;;;;;;;;5033710;28;20580;-69
2024/03/10 12:29:56;;;;;;;1999.90;999.90;;;;;;;;;;5033653;28;20272;-69
2024/03/10 12:32:44;;;;;;;1999.90;999.90;;;;;;;;;;5024652;28;20289;-69
2024/03/10 12:35:29;;;;;;;1999.90;999.90;;;;;;;;;;5016630;28;20754;-69
2024/03/10 12:38:15;;;;;;;1999.90;999.90;;;;;;;;;;5020165;28;20700;-69
2024/03/10 12:41:01;;;;;;;1999.90;999.90;;;;;;;;;;5025015;28;20267;-70
2024/03/10 12:43:47;;;;;;;1999.90;999.90;;;;;;;;;;5026068;28;20233;-69
2024/03/10 12:46:33;;;;;;;1999.90;999.90;;;;;;;;;;5025077;28;20708;-69
2024/03/10 12:49:20;;;;;;;1999.90;999.90;;;;;;;;;;5033946;28;20208;-69
2024/03/10 12:52:06;;;;;;;1999.90;999.90;;;;;;;;;;5037421;28;20506;-69
2024/03/10 12:54:50;;;;;;;1999.90;999.90;;;;;;;;;;5025302;28;20248;-69
2024/03/10 12:57:36;;;;;;;1999.90;999.90;;;;;;;;;;5016180;28;20214;-69
2024/03/10 13:00:30;;;;;;;1999.90;999.90;;;;;;;;;;5014262;28;20206;-69
2024/03/10 13:03:15;;;;;;;1999.90;999.90;;;;;;;;;;5017744;28;20253;-69
2024/03/10 13:06:02;;;;;;;1999.90;999.90;;;;;;;;;;5024326;28;20736;-70
2024/03/10 13:08:47;;;;;;;1999.90;999.90;;;;;;;;;;5025252;28;20225;-69
2024/03/10 13:11:32;;;;;;;1999.90;999.90;;;;;;;;;;5030902;28;20392;-69
2024/03/10 13:14:17;;;;;;;1999.90;999.90;;;;;;;;;;5015663;28;20364;-69
2024/03/10 13:17:03;;;;;;;1999.90;999.90;;;;;;;;;;5021668;28;20206;-69
2024/03/10 13:19:48;;;;;;;1999.90;999.90;;;;;;;;;;5022773;28;20233;-69
2024/03/10 13:22:35;;;;;;;1999.90;999.90;;;;;;;;;;5029942;28;20690;-69
2024/03/10 13:25:19;;;;;;;1999.90;999.90;;;;;;;;;;5017927;28;20338;-69
2024/03/10 13:28:05;;;;;;;1999.90;999.90;;;;;;;;;;5025726;28;20219;-69
2024/03/10 13:30:50;;;;;;;1999.90;999.90;;;;;;;;;;5013606;28;20206;-69
2024/03/10 13:33:37;;;;;;;1999.90;999.90;;;;;;;;;;5028138;28;20235;-69
2024/03/10 13:36:22;;;;;;;1999.90;999.90;;;;;;;;;;5026221;28;20248;-69
2024/03/10 13:39:10;;;;;;;1999.90;999.90;;;;;;;;;;5027313;28;20209;-69
2024/03/10 13:41:57;;;;;;;1999.90;999.90;;;;;;;;;;5027651;28;20213;-69
2024/03/10 13:44:42;;;;;;;1999.90;999.90;;;;;;;;;;5022004;28;20416;-70
2024/03/10 13:47:28;;;;;;;1999.90;999.90;;;;;;;;;;5026610;28;20764;-69
2024/03/10 13:50:14;;;;;;;1999.90;999.90;;;;;;;;;;5029497;28;20701;-69
2024/03/10 13:52:59;;;;;;;1999.90;999.90;;;;;;;;;;5028654;28;20202;-70
2024/03/10 13:55:45;;;;;;;1999.90;999.90;;;;;;;;;;5030369;28;20206;-69
2024/03/10 13:58:31;;;;;;;1999.90;999.90;;;;;;;;;;5031675;28;20193;-70
2024/03/10 14:01:17;;;;;;;1999.90;999.90;;;;;;;;;;5030705;28;20780;-69
2024/03/10 14:04:02;;;;;;;1999.90;999.90;;;;;;;;;;5031706;28;20369;-69
2024/03/10 14:06:47;;;;;;;1999.90;999.90;;;;;;;;;;5010876;28;20761;-69
2024/03/10 14:09:33;;;;;;;1999.90;999.90;;;;;;;;;;5012292;28;20207;-69
2024/03/10 14:12:19;;;;;;;1999.90;999.90;;;;;;;;;;5017932;28;20209;-69
2024/03/10 14:15:09;;;;;;;1999.90;999.90;;;;;;;;;;5030001;28;20222;-69
2024/03/10 14:17:54;;;;;;;1999.90;999.90;;;;;;;;;;5027843;28;20202;-67
2024/03/10 14:20:38;;;;;;;1999.90;999.90;;;;;;;;;;5030891;28;20236;-68
2024/03/10 14:23:23;;;;;;;1999.90;999.90;;;;;;;;;;5026512;28;20238;-68
2024/03/10 14:26:08;;;;;;;1999.90;999.90;;;;;;;;;;5026501;28;20907;-68
2024/03/10 14:28:55;;;;;;;1999.90;999.90;;;;;;;;;;5027907;28;20229;-67
2024/03/10 14:31:40;;;;;;;1999.90;999.90;;;;;;;;;;5011561;28;20266;-67
2024/03/10 14:34:26;;;;;;;1999.90;999.90;;;;;;;;;;5011759;28;20234;-67
2024/03/10 14:37:10;;;;;;;1999.90;999.90;;;;;;;;;;5011685;28;20586;-67
2024/03/10 14:39:55;;;;;;;1999.90;999.90;;;;;;;;;;5011546;28;20257;-67
2024/03/10 14:42:41;;;;;;;1999.90;999.90;;;;;;;;;;5028261;28;20209;-67
2024/03/10 14:45:29;;;;;;;1999.90;999.90;;;;;;;;;;5031313;28;20578;-68
2024/03/10 14:48:15;;;;;;;1999.90;999.90;;;;;;;;;;5031440;28;20202;-68
2024/03/10 14:51:01;;;;;;;1999.90;999.90;;;;;;;;;;5011811;28;20213;-68
2024/03/10 14:53:46;;;;;;;1999.90;999.90;;;;;;;;;;5011464;28;20436;-67
2024/03/10 14:56:31;;;;;;;1999.90;999.90;;;;;;;;;;5025032;28;20261;-68
2024/03/10 14:59:16;;;;;;;1999.90;999.90;;;;;;;;;;5031997;28;20313;-67
2024/03/10 15:02:03;;;;;;;1999.90;999.90;;;;;;;;;;5026102;28;20260;-67
2024/03/10 15:04:48;;;;;;;1999.90;999.90;;;;;;;;;;5015311;28;20699;-68
2024/03/10 15:07:33;;;;;;;1999.90;999.90;;;;;;;;;;5023618;28;20209;-67
2024/03/10 15:10:18;;;;;;;1999.90;999.90;;;;;;;;;;5020388;28;20218;-68
2024/03/10 15:13:04;;;;;;;1999.90;999.90;;;;;;;;;;5024036;28;20276;-67
2024/03/10 15:15:50;;;;;;;1999.90;999.90;;;;;;;;;;5025418;28;20252;-68
2024/03/10 15:18:37;;;;;;;1999.90;999.90;;;;;;;;;;5026250;28;20216;-68
2024/03/10 15:21:22;;;;;;;1999.90;999.90;;;;;;;;;;5020283;28;20214;-67
2024/03/10 15:24:09;;;;;;;1999.90;999.90;;;;;;;;;;5014625;28;20256;-68
2024/03/10 15:26:54;;;;;;;1999.90;999.90;;;;;;;;;;5015181;28;20260;-68
2024/03/10 15:29:39;;;;;;;1999.90;999.90;;;;;;;;;;5014963;28;20586;-68
2024/03/10 15:32:24;;;;;;;1999.90;999.90;;;;;;;;;;5014888;28;20250;-67
2024/03/10 15:35:11;;;;;;;1999.90;999.90;;;;;;;;;;5014413;28;20233;-67
2024/03/10 15:37:57;;;;;;;1999.90;999.90;;;;;;;;;;5014715;28;20568;-68
2024/03/10 15:40:42;;;;;;;1999.90;999.90;;;;;;;;;;5014656;28;20216;-68
2024/03/10 15:43:27;;;;;;;1999.90;999.90;;;;;;;;;;5014509;28;20233;-68
2024/03/10 15:46:12;;;;;;;1999.90;999.90;;;;;;;;;;5013248;28;20912;-68
2024/03/10 15:48:57;;;;;;;1999.90;999.90;;;;;;;;;;5014598;28;20405;-68
2024/03/10 15:51:43;;;;;;;1999.90;999.90;;;;;;;;;;5014436;28;20213;-68
2024/03/10 15:54:28;;;;;;;1999.90;999.90;;;;;;;;;;5014268;28;20250;-68
2024/03/10 15:57:14;;;;;;;1999.90;999.90;;;;;;;;;;5014269;28;20631;-68
2024/03/10 15:59:59;;;;;;;1999.90;999.90;;;;;;;;;;5014279;28;20216;-68
2024/03/10 16:02:46;;;;;;;1999.90;999.90;;;;;;;;;;5013934;28;20269;-68
2024/03/10 16:05:34;;;;;;;1999.90;999.90;;;;;;;;;;5014417;28;20213;-67
2024/03/10 16:08:23;;;;;;;1999.90;999.90;;;;;;;;;;5014373;28;20256;-68
2024/03/10 16:11:08;;;;;;;1999.90;999.90;;;;;;;;;;5014141;28;20233;-67
2024/03/10 16:13:55;;;;;;;1999.90;999.90;;;;;;;;;;5013650;28;20277;-68
2024/03/10 16:16:40;;;;;;;1999.90;999.90;;;;;;;;;;5013924;28;20339;-68
2024/03/10 16:19:25;;;;;;;1999.90;999.90;;;;;;;;;;5013966;28;20210;-67
2024/03/10 16:22:12;;;;;;;1999.90;999.90;;;;;;;;;;5013620;28;20203;-67
2024/03/10 16:24:58;;;;;;;1999.90;999.90;;;;;;;;;;5013925;28;20225;-69
2024/03/10 16:27:46;;;;;;;1999.90;999.90;;;;;;;;;;5013834;28;20209;-68
2024/03/10 16:30:31;;;;;;;1999.90;999.90;;;;;;;;;;5012870;28;20271;-68
2024/03/10 16:33:16;;;;;;;1999.90;999.90;;;;;;;;;;5013304;28;20233;-68
2024/03/10 16:36:04;;;;;;;1999.90;999.90;;;;;;;;;;5012240;28;20396;-67
2024/03/10 16:38:49;;;;;;;1999.90;999.90;;;;;;;;;;5013500;28;20210;-68
2024/03/10 16:41:36;;;;;;;1999.90;999.90;;;;;;;;;;5013512;28;20202;-68
2024/03/10 16:44:21;;;;;;;1999.90;999.90;;;;;;;;;;5013282;28;20264;-67
2024/03/10 16:47:07;;;;;;;1999.90;999.90;;;;;;;;;;5013307;28;20210;-68
2024/03/10 16:49:52;;;;;;;1999.90;999.90;;;;;;;;;;5013377;28;20207;-68
2024/03/10 16:52:38;;;;;;;1999.90;999.90;;;;;;;;;;5013180;28;20209;-67
2024/03/10 16:55:23;;;;;;;1999.90;999.90;;;;;;;;;;5013230;28;20225;-67
2024/03/10 16:58:10;;;;;;;1999.90;999.90;;;;;;;;;;5013359;28;20217;-68
2024/03/10 17:00:55;;;;;;;1999.90;999.90;;;;;;;;;;5013215;28;20691;-68
2024/03/10 17:03:41;;;;;;;1999.90;999.90;;;;;;;;;;5012860;28;20325;-68
2024/03/10 17:06:25;;;;;;;1999.90;999.90;;;;;;;;;;5013280;28;20202;-67
2024/03/10 17:09:10;;;;;;;1999.90;999.90;;;;;;;;;;5012735;28;20415;-68
2024/03/10 17:11:55;;;;;;;1999.90;999.90;;;;;;;;;;5012983;28;20205;-68
2024/03/10 17:14:41;;;;;;;1999.90;999.90;;;;;;;;;;5012901;28;20257;-68
2024/03/10 17:17:27;;;;;;;1999.90;999.90;;;;;;;;;;5012956;28;20209;-68
2024/03/10 17:20:13;;;;;;;1999.90;999.90;;;;;;;;;;5012845;28;20209;-68
2024/03/10 17:22:58;;;;;;;1999.90;999.90;;;;;;;;;;5012293;28;20219;-68
2024/03/10 17:25:43;;;;;;;1999.90;999.90;;;;;;;;;;5012511;28;20265;-68
2024/03/10 17:28:29;;;;;;;1999.90;999.90;;;;;;;;;;5011358;28;20381;-68
2024/03/10 17:31:15;;;;;;;1999.90;999.90;;;;;;;;;;5012637;28;20479;-68
2024/03/10 17:34:00;;;;;;;1999.90;999.90;;;;;;;;;;5012185;28;20665;-68
2024/03/10 17:36:45;;;;;;;1999.90;999.90;;;;;;;;;;5012419;28;20219;-68
2024/03/10 17:39:30;;;;;;;1999.90;999.90;;;;;;;;;;5012563;28;20206;-67
2024/03/10 17:42:15;;;;;;;1999.90;999.90;;;;;;;;;;5012385;28;20238;-67
2024/03/10 17:45:01;;;;;;;1999.90;999.90;;;;;;;;;;5012385;28;20305;-68
2024/03/10 17:47:48;;;;;;;1999.90;999.90;;;;;;;;;;5012155;28;20341;-68
2024/03/10 17:50:37;;;;;;;1999.90;999.90;;;;;;;;;;5012465;28;20202;-68
2024/03/10 17:53:22;;;;;;;1999.90;999.90;;;;;;;;;;5011800;28;20230;-68
2024/03/10 17:56:09;;;;;;;1999.90;999.90;;;;;;;;;;5012041;28;20218;-68
2024/03/10 17:58:54;;;;;;;1999.90;999.90;;;;;;;;;;5012401;28;20203;-68
2024/03/10 18:01:40;;;;;;;1999.90;999.90;;;;;;;;;;5011441;28;20785;-69
2024/03/10 18:04:26;;;;;;;1999.90;999.90;;;;;;;;;;5012133;28;20230;-68
2024/03/10 18:07:11;;;;;;;1999.90;999.90;;;;;;;;;;5012123;28;20230;-68
2024/03/10 18:09:56;;;;;;;1999.90;999.90;;;;;;;;;;5012409;28;20698;-69
2024/03/10 18:12:42;;;;;;;1999.90;999.90;;;;;;;;;;5011880;28;20203;-68
2024/03/10 18:15:28;;;;;;;1999.90;999.90;;;;;;;;;;5012107;28;20265;-68
2024/03/10 18:18:13;;;;;;;1999.90;999.90;;;;;;;;;;5012075;28;20203;-68